createdAt,value
2022-12-23T00:00:47.982Z,44.90
2022-12-23T00:03:50.380Z,40.77
2022-12-23T00:07:12.013Z,44.53
2022-12-23T00:10:13.875Z,45.57
2022-12-23T00:13:30.032Z,45.20
2022-12-23T00:16:45.138Z,44.67
2022-12-23T00:19:47.065Z,45.00
2022-12-23T00:23:08.983Z,42.15
2022-12-23T00:26:23.778Z,45.07
2022-12-23T00:29:32.045Z,44.63
2022-12-23T00:32:40.641Z,44.67
2022-12-23T00:35:50.092Z,47.15
2022-12-23T00:39:00.039Z,48.00
2022-12-23T00:42:16.068Z,48.63
2022-12-23T00:45:24.645Z,44.90
2022-12-23T00:48:39.006Z,50.42
2022-12-23T00:51:48.038Z,46.85
2022-12-23T00:55:03.410Z,49.03
2022-12-23T00:58:12.042Z,45.00
2022-12-23T01:01:27.285Z,48.83
2022-12-23T01:04:36.072Z,48.92
2022-12-23T01:07:46.874Z,47.58
2022-12-23T01:10:56.052Z,49.92
2022-12-23T01:14:04.773Z,49.87
2022-12-23T01:17:14.164Z,51.57
2022-12-23T01:20:36.026Z,49.67
2022-12-23T01:23:38.233Z,53.08
2022-12-23T01:26:53.011Z,48.90
2022-12-23T01:29:58.027Z,59.87
2022-12-23T01:33:13.118Z,53.00
2022-12-23T01:36:15.185Z,47.03
2022-12-23T01:39:30.053Z,54.13
2022-12-23T01:42:39.031Z,48.53
2022-12-23T01:45:48.035Z,59.67
2022-12-23T01:48:59.058Z,51.60
2022-12-23T01:52:08.085Z,58.47
2022-12-23T01:55:18.208Z,62.85
2022-12-23T01:58:39.344Z,63.03
2022-12-23T02:01:54.233Z,61.53
2022-12-23T02:05:00.545Z,69.63
2022-12-23T02:08:15.108Z,62.80
2022-12-23T02:11:38.093Z,66.80
2022-12-23T02:15:21.082Z,68.45
2022-12-23T02:19:02.333Z,66.07
2022-12-23T02:22:42.036Z,71.97
2022-12-23T02:26:30.025Z,65.72
2022-12-23T02:30:08.066Z,66.35
2022-12-23T02:33:32.098Z,64.78
2022-12-23T02:37:00.094Z,68.60
2022-12-23T02:40:21.084Z,66.17
2022-12-23T02:43:53.091Z,69.43
2022-12-23T02:47:07.045Z,65.70
2022-12-23T02:50:30.061Z,75.47
2022-12-23T02:53:47.096Z,77.87
2022-12-23T02:57:04.115Z,71.50
2022-12-23T03:00:14.056Z,73.45
2022-12-23T03:03:31.138Z,76.47
2022-12-23T03:06:41.835Z,76.70
2022-12-23T03:10:13.260Z,71.00
2022-12-23T03:13:56.078Z,75.67
2022-12-23T03:17:40.060Z,77.87
2022-12-23T03:21:20.126Z,85.62
2022-12-23T03:24:53.111Z,88.70
2022-12-23T03:28:21.413Z,79.43
2022-12-23T03:31:40.183Z,93.13
2022-12-23T03:34:52.244Z,98.40
2022-12-23T03:38:03.125Z,91.03
2022-12-23T03:41:26.191Z,90.90
2022-12-23T03:44:35.696Z,94.27
2022-12-23T03:47:57.161Z,91.60
2022-12-23T03:51:06.785Z,98.82
2022-12-23T03:54:26.096Z,90.85
2022-12-23T03:57:45.246Z,103.45
2022-12-23T04:01:18.146Z,92.83
2022-12-23T04:04:46.099Z,89.43
2022-12-23T04:08:03.627Z,102.03
2022-12-23T04:11:15.134Z,95.05
2022-12-23T04:14:24.007Z,105.55
2022-12-23T04:17:33.155Z,109.00
2022-12-23T04:20:49.494Z,90.47
2022-12-23T04:23:58.146Z,101.43
2022-12-23T04:27:14.168Z,99.90
2022-12-23T04:30:26.683Z,110.82
2022-12-23T04:33:40.136Z,99.50
2022-12-23T04:36:55.109Z,96.20
2022-12-23T04:39:57.058Z,98.40
2022-12-23T04:43:12.114Z,93.80
2022-12-23T04:46:14.102Z,101.35
2022-12-23T04:49:29.120Z,107.73
2022-12-23T04:52:38.113Z,100.63
2022-12-23T04:55:51.031Z,120.15
2022-12-23T04:59:00.208Z,104.63
2022-12-23T05:02:09.534Z,84.90
2022-12-23T05:05:18.148Z,83.63
2022-12-23T05:08:27.828Z,78.10
2022-12-23T05:11:43.167Z,82.75
2022-12-23T05:14:45.068Z,77.60
2022-12-23T05:18:00.272Z,69.43
2022-12-23T05:21:11.792Z,65.00
2022-12-23T05:24:26.170Z,66.50
2022-12-23T05:27:34.185Z,66.62
2022-12-23T05:30:45.576Z,72.53
2022-12-23T05:33:54.256Z,64.00
2022-12-23T05:37:02.795Z,62.80
2022-12-23T05:40:12.139Z,59.10
2022-12-23T05:43:21.979Z,64.60
2022-12-23T05:46:30.230Z,76.03
2022-12-23T05:49:45.221Z,60.53
2022-12-23T05:52:54.154Z,68.07
2022-12-23T05:56:05.505Z,54.57
2022-12-23T05:59:14.202Z,63.78
2022-12-23T06:02:29.462Z,57.75
2022-12-23T06:05:46.149Z,57.08
2022-12-23T06:08:48.077Z,59.47
2022-12-23T06:12:03.194Z,49.53
2022-12-23T06:15:15.172Z,47.83
2022-12-23T06:18:23.844Z,57.80
2022-12-23T06:21:45.253Z,48.97
2022-12-23T06:24:54.185Z,51.83
2022-12-23T06:28:03.064Z,54.13
2022-12-23T06:31:11.188Z,49.28
2022-12-23T06:34:22.031Z,64.90
2022-12-23T06:37:30.136Z,46.53
2022-12-23T06:40:40.442Z,59.83
2022-12-23T06:43:54.142Z,56.20
2022-12-23T06:47:12.159Z,47.70
2022-12-23T06:50:21.156Z,46.60
2022-12-23T06:53:30.383Z,55.65
2022-12-23T06:56:40.177Z,51.60
2022-12-23T06:59:48.796Z,46.17
2022-12-23T07:03:00.339Z,57.00
2022-12-23T07:06:09.069Z,48.05
2022-12-23T07:09:17.219Z,45.90
2022-12-23T07:12:32.207Z,49.23
2022-12-23T07:15:34.265Z,49.47
2022-12-23T07:18:49.207Z,58.38
2022-12-23T07:21:57.526Z,49.13
2022-12-23T07:25:13.245Z,52.80
2022-12-23T07:28:31.322Z,47.50
2022-12-23T07:31:41.293Z,43.50
2022-12-23T07:34:56.246Z,44.83
2022-12-23T07:37:58.118Z,42.90
2022-12-23T07:41:13.216Z,39.92
2022-12-23T07:44:29.341Z,46.17
2022-12-23T07:47:38.262Z,47.57
2022-12-23T07:50:54.272Z,42.83
2022-12-23T07:53:56.196Z,47.60
2022-12-23T07:57:11.311Z,43.75
2022-12-23T08:00:24.223Z,55.60
2022-12-23T08:03:32.959Z,44.07
2022-12-23T08:06:42.209Z,49.72
2022-12-23T08:09:57.206Z,40.72
2022-12-23T08:13:07.264Z,49.45
2022-12-23T08:16:22.270Z,38.47
2022-12-23T08:19:30.272Z,45.23
2022-12-23T08:22:45.570Z,45.03
2022-12-23T08:26:08.309Z,43.58
2022-12-23T08:29:16.226Z,49.53
2022-12-23T08:32:27.205Z,48.17
2022-12-23T08:35:42.263Z,50.20
2022-12-23T08:38:45.218Z,53.10
2022-12-23T08:42:01.236Z,51.08
2022-12-23T08:45:10.263Z,51.83
2022-12-23T08:48:25.345Z,62.40
2022-12-23T08:51:36.131Z,50.00
2022-12-23T08:54:51.232Z,55.25
2022-12-23T08:58:06.405Z,61.47
2022-12-23T09:01:12.688Z,53.08
2022-12-23T09:04:27.290Z,49.63
2022-12-23T09:07:42.242Z,53.67
2022-12-23T09:10:51.208Z,53.03
2022-12-23T09:14:02.650Z,70.75
2022-12-23T09:17:11.266Z,50.72
2022-12-23T09:20:34.292Z,53.93
2022-12-23T09:23:49.227Z,52.90
2022-12-23T09:27:04.328Z,47.67
2022-12-23T09:30:07.084Z,53.05
2022-12-23T09:33:23.260Z,52.22
2022-12-23T09:36:31.974Z,51.57
2022-12-23T09:39:40.313Z,55.77
2022-12-23T09:43:15.325Z,47.10
2022-12-23T09:46:29.362Z,44.33
2022-12-23T09:49:57.272Z,49.05
2022-12-23T09:53:12.920Z,44.13
2022-12-23T09:56:46.446Z,49.53
2022-12-23T10:00:11.387Z,50.45
2022-12-23T10:03:26.272Z,43.78
2022-12-23T10:06:37.359Z,46.63
2022-12-23T10:09:56.318Z,39.53
2022-12-23T10:13:02.077Z,43.87
2022-12-23T10:16:25.430Z,48.78
2022-12-23T10:19:38.258Z,47.17
2022-12-23T10:22:53.265Z,48.78
2022-12-23T10:26:12.394Z,41.73
2022-12-23T10:29:25.342Z,45.77
2022-12-23T10:33:01.373Z,47.88
2022-12-23T10:36:32.825Z,41.85
2022-12-23T10:40:00.378Z,45.35
2022-12-23T10:43:26.867Z,41.90
2022-12-23T10:47:09.369Z,45.27
2022-12-23T10:50:44.329Z,44.13
2022-12-23T10:53:59.021Z,50.90
2022-12-23T10:57:15.300Z,47.35
2022-12-23T11:00:22.367Z,49.00
2022-12-23T11:03:42.490Z,50.87
2022-12-23T11:06:55.844Z,48.40
2022-12-23T11:10:24.312Z,48.78
2022-12-23T11:13:36.365Z,45.20
2022-12-23T11:16:52.400Z,49.67
2022-12-23T11:20:27.565Z,59.70
2022-12-23T11:23:36.869Z,48.67
2022-12-23T11:26:56.305Z,52.00
2022-12-23T11:29:59.919Z,49.30
2022-12-23T11:33:32.308Z,53.83
2022-12-23T11:36:35.142Z,55.87
2022-12-23T11:39:53.323Z,52.85
2022-12-23T11:43:09.371Z,54.25
2022-12-23T11:46:27.738Z,56.95
2022-12-23T11:49:37.322Z,59.77
2022-12-23T11:53:08.288Z,53.13
2022-12-23T11:56:23.359Z,56.55
2022-12-23T11:59:44.368Z,51.28
2022-12-23T12:02:56.463Z,52.17
2022-12-23T12:06:09.352Z,58.73
2022-12-23T12:09:25.465Z,54.27
2022-12-23T12:12:41.375Z,52.50
2022-12-23T12:16:06.484Z,53.03
2022-12-23T12:19:28.350Z,51.47
2022-12-23T12:22:51.512Z,58.97
2022-12-23T12:26:12.371Z,63.37
2022-12-23T12:29:27.434Z,59.28
2022-12-23T12:32:50.581Z,63.55
2022-12-23T12:36:22.591Z,61.80
2022-12-23T12:39:44.466Z,64.93
2022-12-23T12:42:55.405Z,61.40
2022-12-23T12:46:50.358Z,67.60
2022-12-23T12:50:00.069Z,59.97
2022-12-23T12:53:24.325Z,61.47
2022-12-23T12:56:34.044Z,62.60
2022-12-23T12:59:50.438Z,61.47
2022-12-23T13:03:27.363Z,59.28
2022-12-23T13:06:56.645Z,54.20
2022-12-23T13:10:40.458Z,64.18
2022-12-23T13:14:19.382Z,58.33
2022-12-23T13:17:36.149Z,58.67
2022-12-23T13:20:52.381Z,62.08
2022-12-23T13:24:36.371Z,59.22
2022-12-23T13:27:55.544Z,59.00
2022-12-23T13:31:34.445Z,61.27
2022-12-23T13:35:03.288Z,64.70
2022-12-23T13:38:29.467Z,64.12
2022-12-23T13:41:45.242Z,64.18
2022-12-23T13:44:54.381Z,66.35
2022-12-23T13:48:32.416Z,60.63
2022-12-23T13:52:06.356Z,62.47
2022-12-23T13:55:26.044Z,57.28
2022-12-23T13:58:41.462Z,70.35
2022-12-23T14:01:47.651Z,63.65
2022-12-23T14:05:09.276Z,63.77
2022-12-23T14:08:26.923Z,72.67
2022-12-23T14:11:41.396Z,65.40
2022-12-23T14:15:03.652Z,58.05
2022-12-23T14:18:49.521Z,64.90
2022-12-23T14:22:21.385Z,60.90
2022-12-23T14:25:57.085Z,63.73
2022-12-23T14:29:25.378Z,59.38
2022-12-23T14:32:59.380Z,59.42
2022-12-23T14:36:23.087Z,63.22
2022-12-23T14:39:40.421Z,59.87
2022-12-23T14:42:49.174Z,58.40
2022-12-23T14:46:27.525Z,55.65
2022-12-23T14:49:41.168Z,62.15
2022-12-23T14:53:06.373Z,56.78
2022-12-23T14:57:01.412Z,58.20
2022-12-23T15:00:05.740Z,54.83
2022-12-23T15:03:22.558Z,59.72
2022-12-23T15:06:40.406Z,62.10
2022-12-23T15:10:00.731Z,55.20
2022-12-23T15:13:10.406Z,54.83
2022-12-23T15:16:26.465Z,59.03
2022-12-23T15:19:35.504Z,59.10
2022-12-23T15:22:51.229Z,64.20
2022-12-23T15:26:04.426Z,66.20
2022-12-23T15:29:14.445Z,61.73
2022-12-23T15:32:23.474Z,55.97
2022-12-23T15:35:35.820Z,59.30
2022-12-23T15:38:45.481Z,66.32
2022-12-23T15:42:00.420Z,66.60
2022-12-23T15:45:33.550Z,71.80
2022-12-23T15:48:48.470Z,60.00
2022-12-23T15:52:12.025Z,68.12
2022-12-23T15:55:28.998Z,70.35
2022-12-23T15:58:47.610Z,68.80
2022-12-23T16:01:51.437Z,59.47
2022-12-23T16:05:09.417Z,59.37
2022-12-23T16:08:33.542Z,63.25
2022-12-23T16:11:56.126Z,68.55
2022-12-23T16:15:27.522Z,63.87
2022-12-23T16:18:29.846Z,58.27
2022-12-23T16:21:44.478Z,66.73
2022-12-23T16:24:51.950Z,59.22
2022-12-23T16:28:19.467Z,61.78
2022-12-23T16:31:34.506Z,58.78
2022-12-23T16:34:48.548Z,57.93
2022-12-23T16:38:11.525Z,61.47
2022-12-23T16:41:19.732Z,67.07
2022-12-23T16:44:34.565Z,73.72
2022-12-23T16:47:43.467Z,60.30
2022-12-23T16:51:02.430Z,60.67
2022-12-23T16:54:10.573Z,60.23
2022-12-23T16:57:25.520Z,61.92
2022-12-23T17:00:35.650Z,61.37
2022-12-23T17:03:50.513Z,59.65
2022-12-23T17:06:59.148Z,64.27
2022-12-23T17:10:07.465Z,57.80
2022-12-23T17:13:18.788Z,56.15
2022-12-23T17:16:29.580Z,65.12
2022-12-23T17:19:44.455Z,66.18
2022-12-23T17:22:57.514Z,62.90
2022-12-23T17:26:12.475Z,56.53
2022-12-23T17:29:21.757Z,61.17
2022-12-23T17:32:36.577Z,65.18
2022-12-23T17:35:38.482Z,69.35
2022-12-23T17:38:53.538Z,65.87
2022-12-23T17:42:03.142Z,64.63
2022-12-23T17:45:35.571Z,60.85
2022-12-23T17:48:38.189Z,64.97
2022-12-23T17:51:52.483Z,55.67
2022-12-23T17:54:54.784Z,65.60
2022-12-23T17:58:09.513Z,56.47
2022-12-23T18:01:29.630Z,68.00
2022-12-23T18:04:38.256Z,62.75
2022-12-23T18:07:46.481Z,67.95
2022-12-23T18:10:58.235Z,59.77
2022-12-23T18:14:21.634Z,65.77
2022-12-23T18:17:23.573Z,72.07
2022-12-23T18:20:41.504Z,66.97
2022-12-23T18:23:57.535Z,72.78
2022-12-23T18:27:23.564Z,59.87
2022-12-23T18:30:33.578Z,56.27
2022-12-23T18:33:42.288Z,59.20
2022-12-23T18:36:57.472Z,66.20
2022-12-23T18:39:59.342Z,63.85
2022-12-23T18:43:25.532Z,65.87
2022-12-23T18:46:33.554Z,58.77
2022-12-23T18:49:48.558Z,65.55
2022-12-23T18:52:51.013Z,63.00
2022-12-23T18:56:05.557Z,56.00
2022-12-23T18:59:29.212Z,64.97
2022-12-23T19:02:47.623Z,69.37
2022-12-23T19:06:00.719Z,62.42
2022-12-23T19:09:16.389Z,69.93
2022-12-23T19:12:25.643Z,70.57
2022-12-23T19:15:34.486Z,71.03
2022-12-23T19:18:43.718Z,58.77
2022-12-23T19:22:05.513Z,56.55
2022-12-23T19:25:23.619Z,61.85
2022-12-23T19:28:32.586Z,66.78
2022-12-23T19:31:41.336Z,73.77
2022-12-23T19:34:50.562Z,66.67
2022-12-23T19:37:59.437Z,70.15
2022-12-23T19:41:09.560Z,60.75
2022-12-23T19:44:18.449Z,65.53
2022-12-23T19:47:26.573Z,69.37
2022-12-23T19:50:35.877Z,57.70
2022-12-23T19:53:46.539Z,65.28
2022-12-23T19:57:01.574Z,57.38
2022-12-23T20:00:11.553Z,62.78
2022-12-23T20:03:26.814Z,63.67
2022-12-23T20:06:40.597Z,56.70
2022-12-23T20:09:55.597Z,57.67
2022-12-23T20:13:03.541Z,57.20
2022-12-23T20:16:13.245Z,64.10
2022-12-23T20:19:28.771Z,67.37
2022-12-23T20:22:50.600Z,54.67
2022-12-23T20:25:59.824Z,56.88
2022-12-23T20:29:08.643Z,54.88
2022-12-23T20:32:17.680Z,51.80
2022-12-23T20:35:25.709Z,55.27
2022-12-23T20:38:42.278Z,59.10
2022-12-23T20:41:50.735Z,56.50
2022-12-23T20:44:59.468Z,56.63
2022-12-23T20:48:08.774Z,54.92
2022-12-23T20:51:26.607Z,53.60
2022-12-23T20:54:35.383Z,56.13
2022-12-23T20:57:43.709Z,53.58
2022-12-23T21:00:58.600Z,54.75
2022-12-23T21:04:17.652Z,60.33
2022-12-23T21:07:26.605Z,50.23
2022-12-23T21:10:37.553Z,54.93
2022-12-23T21:13:58.684Z,57.13
2022-12-23T21:17:09.229Z,58.10
2022-12-23T21:20:24.641Z,56.60
2022-12-23T21:23:44.847Z,52.00
2022-12-23T21:26:56.490Z,46.17
2022-12-23T21:30:05.623Z,45.78
2022-12-23T21:33:21.648Z,45.20
2022-12-23T21:36:34.666Z,42.08
2022-12-23T21:39:43.286Z,57.17
2022-12-23T21:42:51.688Z,50.73
2022-12-23T21:46:03.747Z,47.80
2022-12-23T21:49:12.611Z,47.97
2022-12-23T21:52:27.635Z,44.53
2022-12-23T21:55:29.511Z,54.33
2022-12-23T21:58:45.722Z,47.43
2022-12-23T22:01:47.950Z,44.10
2022-12-23T22:05:02.666Z,54.97
2022-12-23T22:08:04.585Z,55.60
2022-12-23T22:11:24.631Z,47.60
2022-12-23T22:14:39.625Z,47.40
2022-12-23T22:17:48.452Z,52.70
2022-12-23T22:21:00.775Z,52.67
2022-12-23T22:24:22.631Z,49.05
2022-12-23T22:27:24.793Z,45.97
2022-12-23T22:30:39.682Z,57.10
2022-12-23T22:33:48.254Z,46.42
2022-12-23T22:37:02.666Z,55.70
2022-12-23T22:40:18.660Z,48.70
2022-12-23T22:43:27.255Z,54.60
2022-12-23T22:46:41.685Z,51.03
2022-12-23T22:49:43.847Z,48.38
2022-12-23T22:52:58.665Z,37.97
2022-12-23T22:56:08.105Z,40.65
2022-12-23T22:59:29.634Z,45.93
2022-12-23T23:02:31.875Z,35.87
2022-12-23T23:05:46.709Z,39.15
2022-12-23T23:08:56.723Z,41.95
2022-12-23T23:12:11.682Z,37.53
2022-12-23T23:15:26.644Z,37.63
2022-12-23T23:18:29.611Z,41.87
2022-12-23T23:21:45.686Z,40.17
2022-12-23T23:25:00.746Z,47.30
2022-12-23T23:28:15.657Z,47.92
2022-12-23T23:31:41.422Z,44.00
2022-12-23T23:34:52.704Z,43.83
2022-12-23T23:38:07.673Z,48.63
2022-12-23T23:41:09.949Z,50.12
2022-12-23T23:44:24.645Z,49.28
2022-12-23T23:47:32.659Z,48.67
2022-12-23T23:50:49.670Z,44.93
2022-12-23T23:53:51.745Z,48.80
2022-12-23T23:57:06.965Z,46.83
